Kollan Island, Australia
Current Conditions -  °F | °C
As of 8:00 PM on Monday 22 Dec 2014 (Local Time) from YCIN Reporting Station
Clear Clear  
Wind Chill: 86°   Ceiling: Unl
Heat Index: 93°   Visibility: NA
Dew Point: 73°   Wind: 6mph
Humidity: 66%   Direction: 10°N
Pressure: 29.71"   Gusts: NA
Location:  16.11°S, 123.69°E
Report Text: YCIN 221200Z AUTO 01005KT //// // NCD 30/23 Q1006
Loading
Personal Weather Stations






























Interactive Weather Map New forecast layout! Learn more

10-Day Weather Forecast

Advertisements
Track Severe Weather on mobile